createdAt,value
2022-08-12T00:02:04.133Z,4.53
2022-08-12T00:04:52.489Z,4.93
2022-08-12T00:07:38.065Z,6.97
2022-08-12T00:10:23.706Z,7.10
2022-08-12T00:13:08.785Z,4.70
2022-08-12T00:15:54.907Z,6.60
2022-08-12T00:18:40.178Z,5.03
2022-08-12T00:21:25.538Z,5.18
2022-08-12T00:24:12.672Z,6.85
2022-08-12T00:27:00.114Z,5.60
2022-08-12T00:29:47.973Z,8.77
2022-08-12T00:32:56.856Z,13.63
2022-08-12T00:35:39.464Z,17.50
2022-08-12T00:38:25.945Z,10.38
2022-08-12T00:41:11.595Z,8.18
2022-08-12T00:43:38.344Z,5.82
2022-08-12T00:46:24.004Z,3.35
2022-08-12T00:48:51.665Z,4.18
2022-08-12T00:51:19.649Z,9.38
2022-08-12T00:53:46.253Z,9.05
2022-08-12T00:56:12.870Z,5.30
2022-08-12T00:58:47.024Z,6.30
2022-08-12T01:01:14.449Z,4.47
2022-08-12T01:03:59.775Z,6.03
2022-08-12T01:06:46.315Z,5.50
2022-08-12T01:09:37.213Z,5.13
2022-08-12T01:12:06.345Z,5.30
2022-08-12T01:14:34.402Z,4.80
2022-08-12T01:17:01.018Z,5.22
2022-08-12T01:19:27.479Z,5.15
2022-08-12T01:22:23.146Z,6.43
2022-08-12T01:25:06.761Z,5.60
2022-08-12T01:27:35.107Z,4.10
2022-08-12T01:30:07.742Z,6.45
2022-08-12T01:32:38.396Z,6.57
2022-08-12T01:35:13.478Z,4.85
2022-08-12T01:37:56.509Z,3.97
2022-08-12T01:40:37.803Z,4.53
2022-08-12T01:43:10.924Z,7.22
2022-08-12T01:45:57.054Z,3.58
2022-08-12T01:48:34.848Z,9.10
2022-08-12T01:52:19.807Z,4.88
2022-08-12T01:54:28.804Z,4.38
2022-08-12T01:57:02.279Z,6.25
2022-08-12T01:59:58.426Z,8.38
2022-08-12T02:02:55.316Z,4.65
2022-08-12T02:06:01.233Z,6.80
2022-08-12T02:08:49.612Z,9.65
2022-08-12T02:11:24.629Z,5.07
2022-08-12T02:14:31.374Z,5.22
2022-08-12T02:17:24.126Z,5.75
2022-08-12T02:20:51.131Z,4.20
2022-08-12T02:23:26.787Z,4.63
2022-08-12T02:25:58.033Z,4.78
2022-08-12T02:28:24.876Z,5.65
2022-08-12T02:30:51.366Z,5.75
2022-08-12T02:33:19.706Z,5.85
2022-08-12T02:38:28.654Z,4.97
2022-08-12T02:40:57.456Z,7.57
2022-08-12T02:43:40.253Z,12.75
2022-08-12T02:46:14.475Z,5.75
2022-08-12T02:48:52.278Z,8.23
2022-08-12T02:51:34.000Z,5.32
2022-08-12T02:54:05.347Z,9.60
2022-08-12T02:56:34.188Z,4.65
2022-08-12T02:59:01.784Z,14.18
2022-08-12T03:01:35.613Z,5.68
2022-08-12T03:04:20.250Z,10.02
2022-08-12T03:07:09.492Z,5.82
2022-08-12T03:10:04.814Z,5.93
2022-08-12T03:12:42.817Z,15.27
2022-08-12T03:15:18.126Z,7.63
2022-08-12T03:18:25.879Z,7.45
2022-08-12T03:20:56.626Z,9.27
2022-08-12T03:23:29.795Z,7.35
2022-08-12T03:26:00.508Z,6.90
2022-08-12T03:28:47.677Z,10.05
2022-08-12T03:31:14.187Z,5.00
2022-08-12T03:34:00.773Z,6.80
2022-08-12T03:36:31.911Z,10.07
2022-08-12T03:39:35.549Z,7.07
2022-08-12T03:42:24.167Z,7.40
2022-08-12T03:45:26.407Z,8.60
2022-08-12T03:48:18.822Z,8.45
2022-08-12T03:51:05.939Z,9.45
2022-08-12T03:53:51.737Z,6.28
2022-08-12T03:56:37.046Z,5.85
2022-08-12T03:59:24.370Z,8.15
2022-08-12T04:01:57.661Z,6.57
2022-08-12T04:04:32.963Z,7.97
2022-08-12T04:07:09.861Z,8.25
2022-08-12T04:09:43.048Z,7.82
2022-08-12T04:12:29.946Z,7.03
2022-08-12T04:15:00.375Z,6.63
2022-08-12T04:17:27.983Z,6.85
2022-08-12T04:19:56.644Z,11.65
2022-08-12T04:22:29.407Z,7.80
2022-08-12T04:25:01.477Z,6.50
2022-08-12T04:27:31.517Z,13.43
2022-08-12T04:30:16.370Z,5.73
2022-08-12T04:32:48.180Z,10.30
2022-08-12T04:35:15.092Z,7.32
2022-08-12T04:37:58.402Z,6.47
2022-08-12T04:40:29.011Z,8.10
2022-08-12T04:42:55.959Z,12.40
2022-08-12T04:45:22.823Z,10.43
2022-08-12T04:47:49.607Z,10.07
2022-08-12T04:50:34.607Z,7.57
2022-08-12T04:53:08.245Z,5.25
2022-08-12T04:55:38.812Z,12.30
2022-08-12T04:58:06.731Z,5.30
2022-08-12T05:00:33.882Z,6.00
2022-08-12T05:03:00.437Z,8.73
2022-08-12T05:05:30.347Z,7.22
2022-08-12T05:07:59.080Z,5.22
2022-08-12T05:10:34.000Z,7.20
2022-08-12T05:13:08.117Z,7.50
2022-08-12T05:16:03.924Z,8.80
2022-08-12T05:18:25.294Z,7.93
2022-08-12T05:20:55.713Z,7.05
2022-08-12T05:23:22.523Z,5.95
2022-08-12T05:25:51.336Z,9.60
2022-08-12T05:28:18.222Z,8.82
2022-08-12T05:30:45.880Z,7.95
2022-08-12T05:33:13.582Z,9.30
2022-08-12T05:35:43.528Z,11.32
2022-08-12T05:38:41.034Z,9.02
2022-08-12T05:41:19.016Z,7.00
2022-08-12T05:44:00.684Z,6.47
2022-08-12T05:46:29.030Z,7.13
2022-08-12T05:48:56.358Z,7.30
2022-08-12T05:51:39.571Z,6.18
2022-08-12T05:54:08.819Z,13.35
2022-08-12T05:56:36.068Z,6.70
2022-08-12T05:59:07.522Z,4.70
2022-08-12T06:02:12.302Z,7.70
2022-08-12T06:04:21.450Z,7.00
2022-08-12T06:06:51.389Z,11.43
2022-08-12T06:09:17.808Z,7.37
2022-08-12T06:12:05.926Z,9.10
2022-08-12T06:14:36.713Z,5.53
2022-08-12T06:17:04.422Z,6.93
2022-08-12T06:20:26.593Z,5.13
2022-08-12T06:22:18.037Z,9.82
2022-08-12T06:24:44.505Z,9.63
2022-08-12T06:27:11.549Z,3.95
2022-08-12T06:30:08.848Z,5.28
2022-08-12T06:32:27.464Z,7.05
2022-08-12T06:35:23.400Z,7.17
2022-08-12T06:37:45.805Z,6.45
2022-08-12T06:40:42.205Z,7.75
2022-08-12T06:43:08.738Z,7.03
2022-08-12T06:45:45.231Z,9.07
2022-08-12T06:48:12.333Z,9.82
2022-08-12T06:50:40.204Z,3.58
2022-08-12T06:53:06.850Z,6.35
2022-08-12T06:55:33.299Z,6.35
2022-08-12T06:58:07.396Z,5.32
2022-08-12T07:00:36.966Z,6.97
2022-08-12T07:03:22.702Z,6.22
2022-08-12T07:05:50.854Z,7.38
2022-08-12T07:08:18.171Z,5.97
2022-08-12T07:10:50.789Z,7.13
2022-08-12T07:13:17.252Z,6.50
2022-08-12T07:15:43.868Z,6.32
2022-08-12T07:18:11.982Z,4.43
2022-08-12T07:20:51.831Z,3.72
2022-08-12T07:23:19.459Z,3.88
2022-08-12T07:25:45.958Z,4.47
2022-08-12T07:28:24.498Z,20.35
2022-08-12T07:30:53.366Z,5.05
2022-08-12T07:33:23.020Z,5.10
2022-08-12T07:35:53.876Z,8.53
2022-08-12T07:38:29.113Z,1.80
2022-08-12T07:41:15.818Z,6.63
2022-08-12T07:43:51.459Z,7.68
2022-08-12T07:46:22.548Z,5.43
2022-08-12T07:48:51.896Z,5.90
2022-08-12T07:51:25.274Z,4.80
2022-08-12T07:54:00.537Z,8.57
2022-08-12T07:56:31.130Z,4.90
2022-08-12T07:58:59.198Z,3.95
2022-08-12T08:01:26.383Z,6.60
2022-08-12T08:04:17.992Z,6.93
2022-08-12T08:06:45.934Z,2.47
2022-08-12T08:09:14.866Z,6.93
2022-08-12T08:12:00.382Z,3.88
2022-08-12T08:14:31.733Z,4.07
2022-08-12T08:16:59.708Z,2.60
2022-08-12T08:19:29.019Z,8.32
2022-08-12T08:21:57.189Z,1.67
2022-08-12T08:24:26.904Z,1.60
2022-08-12T08:26:58.878Z,5.73
2022-08-12T08:29:25.721Z,1.38
2022-08-12T08:31:59.927Z,2.28
2022-08-12T08:34:49.136Z,5.25
2022-08-12T08:37:17.281Z,4.05
2022-08-12T08:39:43.976Z,5.63
2022-08-12T08:42:36.786Z,1.30
2022-08-12T08:45:12.831Z,2.05
2022-08-12T08:47:49.674Z,4.82
2022-08-12T08:50:16.245Z,2.92
2022-08-12T08:52:47.330Z,1.58
2022-08-12T08:55:20.842Z,3.35
2022-08-12T08:57:53.611Z,4.10
2022-08-12T09:00:21.704Z,4.38
2022-08-12T09:02:59.502Z,4.03
2022-08-12T09:05:27.696Z,5.10
2022-08-12T09:08:09.077Z,8.63
2022-08-12T09:10:45.188Z,2.13
2022-08-12T09:14:12.960Z,4.83
2022-08-12T09:16:21.285Z,7.38
2022-08-12T09:18:52.683Z,5.07
2022-08-12T09:21:23.240Z,4.20
2022-08-12T09:23:57.752Z,2.25
2022-08-12T09:26:29.165Z,3.70
2022-08-12T09:28:56.850Z,1.73
2022-08-12T09:32:05.838Z,8.75
2022-08-12T09:34:28.118Z,5.40
2022-08-12T09:37:02.562Z,2.90
2022-08-12T09:40:03.590Z,2.95
2022-08-12T09:43:10.955Z,1.23
2022-08-12T09:46:06.941Z,7.10
2022-08-12T09:48:23.202Z,5.18
2022-08-12T09:50:51.870Z,1.30
2022-08-12T09:53:36.335Z,3.03
2022-08-12T09:57:00.931Z,1.65
2022-08-12T09:59:00.369Z,8.65
2022-08-12T10:01:35.354Z,4.13
2022-08-12T10:04:19.289Z,4.78
2022-08-12T10:06:53.790Z,8.70
2022-08-12T10:09:23.117Z,6.10
2022-08-12T10:12:14.206Z,6.03
2022-08-12T10:14:49.802Z,2.95
2022-08-12T10:17:18.571Z,3.58
2022-08-12T10:19:51.627Z,11.52
2022-08-12T10:22:37.228Z,2.10
2022-08-12T10:26:38.185Z,4.07
2022-08-12T10:28:30.467Z,2.80
2022-08-12T10:30:59.315Z,10.48
2022-08-12T10:33:31.454Z,1.83
2022-08-12T10:35:59.747Z,3.80
2022-08-12T10:38:38.140Z,3.60
2022-08-12T10:41:56.550Z,1.85
2022-08-12T10:44:16.995Z,5.70
2022-08-12T10:46:49.063Z,4.15
2022-08-12T10:50:03.659Z,11.05
2022-08-12T10:52:34.725Z,4.05
2022-08-12T10:54:53.393Z,6.88
2022-08-12T10:58:13.017Z,6.47
2022-08-12T11:00:30.583Z,4.05
2022-08-12T11:04:27.682Z,8.55
2022-08-12T11:07:10.203Z,3.92
2022-08-12T11:08:42.319Z,2.47
2022-08-12T11:11:13.602Z,3.60
2022-08-12T11:13:46.586Z,6.40
2022-08-12T11:16:22.522Z,10.60
2022-08-12T11:18:55.423Z,14.68
2022-08-12T11:21:56.397Z,6.28
2022-08-12T11:24:30.712Z,2.85
2022-08-12T11:27:07.797Z,3.97
2022-08-12T11:30:05.763Z,2.13
2022-08-12T11:32:29.386Z,3.90
2022-08-12T11:35:05.936Z,5.63
2022-08-12T11:37:59.392Z,6.72
2022-08-12T11:40:50.504Z,2.65
2022-08-12T11:43:50.294Z,4.15
2022-08-12T11:46:26.639Z,2.75
2022-08-12T11:48:53.070Z,4.13
2022-08-12T11:51:20.780Z,5.82
2022-08-12T11:53:58.341Z,4.10
2022-08-12T11:56:38.567Z,7.40
2022-08-12T12:02:04.741Z,7.70
2022-08-12T12:04:32.141Z,6.07
2022-08-12T12:07:07.447Z,5.68
2022-08-12T12:09:52.373Z,6.95
2022-08-12T12:12:22.306Z,3.35
2022-08-12T12:14:54.223Z,3.63
2022-08-12T12:17:21.655Z,5.35
2022-08-12T12:19:48.619Z,5.03
2022-08-12T12:22:15.693Z,6.18
2022-08-12T12:24:51.036Z,3.25
2022-08-12T12:27:39.384Z,4.43
2022-08-12T12:30:17.688Z,3.83
2022-08-12T12:32:53.738Z,4.03
2022-08-12T12:36:19.968Z,4.68
2022-08-12T12:38:12.867Z,3.28
2022-08-12T12:40:45.704Z,5.80
2022-08-12T12:43:16.998Z,4.20
2022-08-12T12:46:03.452Z,4.20
2022-08-12T12:48:29.886Z,4.93
2022-08-12T12:51:49.370Z,5.30
2022-08-12T12:54:07.187Z,2.22
2022-08-12T12:56:42.299Z,1.80
2022-08-12T12:59:33.703Z,7.88
2022-08-12T13:01:56.140Z,2.85
2022-08-12T13:04:24.644Z,8.70
2022-08-12T13:07:01.249Z,5.00
2022-08-12T13:09:28.393Z,4.82
2022-08-12T13:12:03.031Z,5.53
2022-08-12T13:14:31.632Z,3.70
2022-08-12T13:17:02.936Z,5.72
2022-08-12T13:19:43.451Z,5.00
2022-08-12T13:22:18.552Z,5.00
2022-08-12T13:24:54.943Z,3.70
2022-08-12T13:27:35.516Z,3.40
2022-08-12T13:30:06.906Z,3.78
2022-08-12T13:32:38.063Z,2.05
2022-08-12T13:35:19.237Z,3.00
2022-08-12T13:37:55.121Z,2.90
2022-08-12T13:40:40.742Z,5.20
2022-08-12T13:43:07.510Z,4.32
2022-08-12T13:45:35.414Z,2.17
2022-08-12T13:48:07.174Z,1.77
2022-08-12T13:50:38.672Z,5.05
2022-08-12T13:53:23.986Z,2.08
2022-08-12T13:55:59.522Z,2.65
2022-08-12T13:58:29.102Z,3.90
2022-08-12T14:00:58.003Z,6.18
2022-08-12T14:03:28.025Z,3.28
2022-08-12T14:05:59.149Z,4.18
2022-08-12T14:08:25.898Z,4.18
2022-08-12T14:11:02.047Z,2.58
2022-08-12T14:14:03.854Z,3.88
2022-08-12T14:16:37.821Z,3.88
2022-08-12T14:19:05.135Z,2.95
2022-08-12T14:21:59.288Z,4.55
2022-08-12T14:24:30.818Z,3.13
2022-08-12T14:26:57.518Z,2.53
2022-08-12T14:29:55.699Z,6.18
2022-08-12T14:32:39.160Z,6.22
2022-08-12T14:35:10.938Z,1.52
2022-08-12T14:37:57.323Z,6.53
2022-08-12T14:40:29.495Z,2.65
2022-08-12T14:42:58.324Z,2.95
2022-08-12T14:45:45.582Z,2.33
2022-08-12T14:48:13.135Z,6.15
2022-08-12T14:51:03.182Z,5.60
2022-08-12T14:59:23.804Z,6.78
2022-08-12T15:02:17.111Z,2.40
2022-08-12T15:05:03.470Z,5.47
2022-08-12T15:07:33.167Z,2.97
2022-08-12T15:10:10.767Z,2.13
2022-08-12T15:12:40.527Z,4.00
2022-08-12T15:15:08.761Z,4.05
2022-08-12T15:17:38.543Z,2.67
2022-08-12T15:20:31.512Z,1.75
2022-08-12T15:22:53.866Z,1.35
2022-08-12T15:25:20.745Z,2.13
2022-08-12T15:28:04.457Z,2.47
2022-08-12T15:30:34.637Z,1.38
2022-08-12T15:33:12.239Z,5.68
2022-08-12T15:35:50.250Z,5.80
2022-08-12T15:38:20.719Z,2.60
2022-08-12T15:40:49.929Z,4.70
2022-08-12T15:43:35.479Z,5.07
2022-08-12T15:46:06.256Z,8.80
2022-08-12T15:48:32.914Z,4.10
2022-08-12T15:51:01.931Z,3.58
2022-08-12T15:53:53.163Z,1.70
2022-08-12T15:56:29.355Z,5.60
2022-08-12T15:58:58.861Z,3.40
2022-08-12T16:01:35.138Z,3.42
2022-08-12T16:04:02.990Z,3.72
2022-08-12T16:06:50.989Z,3.37
2022-08-12T16:09:21.507Z,1.65
2022-08-12T16:11:48.753Z,3.90
2022-08-12T16:14:16.219Z,4.93
2022-08-12T16:16:42.924Z,4.45
2022-08-12T16:20:01.862Z,2.58
2022-08-12T16:21:58.226Z,4.75
2022-08-12T16:24:25.413Z,1.60
2022-08-12T16:27:03.778Z,2.28
2022-08-12T16:29:53.813Z,3.70
2022-08-12T16:32:31.741Z,4.28
2022-08-12T16:34:59.819Z,6.40
2022-08-12T16:38:04.746Z,4.05
2022-08-12T16:40:14.328Z,6.72
2022-08-12T16:42:53.807Z,5.93
2022-08-12T16:46:04.351Z,3.03
2022-08-12T16:51:09.487Z,4.07
2022-08-12T16:53:44.654Z,1.75
2022-08-12T16:56:15.162Z,9.38
2022-08-12T16:58:42.271Z,3.70
2022-08-12T17:01:13.978Z,7.00
2022-08-12T17:03:58.842Z,7.43
2022-08-12T17:06:28.127Z,1.90
2022-08-12T17:09:02.861Z,4.57
2022-08-12T17:11:30.972Z,2.53
2022-08-12T17:13:59.097Z,7.60
2022-08-12T17:16:30.143Z,4.28
2022-08-12T17:18:59.715Z,4.57
2022-08-12T17:21:41.373Z,6.65
2022-08-12T17:24:21.714Z,2.83
2022-08-12T17:29:24.014Z,3.92
2022-08-12T17:32:07.296Z,5.22
2022-08-12T17:34:54.101Z,4.13
2022-08-12T17:37:21.260Z,1.75
2022-08-12T17:40:07.431Z,4.30
2022-08-12T17:42:35.546Z,3.92
2022-08-12T17:45:18.207Z,3.97
2022-08-12T17:48:01.748Z,4.75
2022-08-12T17:50:36.870Z,2.97
2022-08-12T17:53:08.115Z,5.47
2022-08-12T17:55:44.004Z,4.63
2022-08-12T17:58:15.007Z,6.07
2022-08-12T18:00:46.062Z,6.88
2022-08-12T18:04:06.936Z,2.33
2022-08-12T18:06:14.255Z,5.38
2022-08-12T18:08:54.567Z,4.22
2022-08-12T18:12:05.569Z,4.90
2022-08-12T18:14:28.954Z,2.30
2022-08-12T18:17:00.522Z,3.80
2022-08-12T18:20:03.530Z,11.35
2022-08-12T18:22:17.604Z,9.07
2022-08-12T18:25:01.471Z,2.05
2022-08-12T18:27:43.488Z,5.60
2022-08-12T18:30:13.196Z,3.05
2022-08-12T18:32:59.101Z,7.78
2022-08-12T18:35:47.791Z,3.60
2022-08-12T18:38:17.083Z,3.33
2022-08-12T18:41:04.140Z,2.22
2022-08-12T18:43:57.213Z,6.88
2022-08-12T18:46:29.237Z,14.60
2022-08-12T18:48:57.587Z,8.15
2022-08-12T18:51:51.892Z,10.02
2022-08-12T18:54:23.284Z,4.35
2022-08-12T18:56:49.968Z,10.80
2022-08-12T19:00:01.145Z,7.63
2022-08-12T19:02:21.840Z,18.08
2022-08-12T19:04:49.568Z,10.50
2022-08-12T19:07:24.870Z,4.00
2022-08-12T19:09:59.976Z,3.72
2022-08-12T19:12:57.244Z,4.50
2022-08-12T19:15:25.619Z,24.65
2022-08-12T19:18:00.502Z,7.95
2022-08-12T19:20:32.847Z,7.63
2022-08-12T19:23:07.192Z,6.53
2022-08-12T19:26:00.521Z,6.97
2022-08-12T19:28:26.078Z,5.13
2022-08-12T19:31:17.546Z,5.90
2022-08-12T19:34:00.912Z,5.10
2022-08-12T19:36:32.483Z,6.68
2022-08-12T19:39:01.774Z,5.28
2022-08-12T19:41:42.454Z,11.27
2022-08-12T19:44:16.766Z,5.63
2022-08-12T19:46:52.907Z,6.57
2022-08-12T19:49:20.476Z,5.28
2022-08-12T19:51:51.543Z,4.15
2022-08-12T19:54:22.994Z,5.97
2022-08-12T19:56:57.455Z,6.18
2022-08-12T19:59:43.258Z,7.05
2022-08-12T20:02:22.738Z,4.32
2022-08-12T20:06:06.055Z,4.68
2022-08-12T20:07:57.164Z,4.63
2022-08-12T20:10:36.408Z,3.05
2022-08-12T20:13:18.337Z,4.55
2022-08-12T20:15:51.092Z,5.95
2022-08-12T20:18:53.275Z,6.82
2022-08-12T20:21:15.928Z,9.02
2022-08-12T20:23:59.854Z,5.25
2022-08-12T20:26:27.666Z,7.85
2022-08-12T20:28:54.821Z,8.93
2022-08-12T20:31:21.285Z,9.18
2022-08-12T20:33:50.657Z,6.45
2022-08-12T20:36:42.837Z,9.27
2022-08-12T20:39:34.059Z,5.57
2022-08-12T20:42:01.781Z,4.32
2022-08-12T20:44:30.414Z,6.80
2022-08-12T20:47:06.309Z,4.72
2022-08-12T20:49:44.278Z,5.68
2022-08-12T20:52:15.230Z,6.00
2022-08-12T20:54:50.123Z,5.78
2022-08-12T20:57:20.872Z,3.67
2022-08-12T20:59:50.157Z,7.20
2022-08-12T21:02:24.490Z,8.10
2022-08-12T21:05:16.289Z,5.78
2022-08-12T21:07:47.690Z,4.97
2022-08-12T21:10:18.928Z,8.02
2022-08-12T21:12:47.939Z,4.70
2022-08-12T21:15:18.021Z,4.18
2022-08-12T21:18:11.069Z,6.07
2022-08-12T21:20:55.736Z,4.72
2022-08-12T21:23:23.014Z,13.27
2022-08-12T21:25:51.168Z,3.13
2022-08-12T21:28:20.429Z,6.30
2022-08-12T21:31:11.780Z,6.38
2022-08-12T21:33:58.624Z,7.75
2022-08-12T21:36:22.545Z,8.93
2022-08-12T21:38:51.169Z,4.53
2022-08-12T21:41:20.230Z,3.15
2022-08-12T21:43:52.427Z,5.53
2022-08-12T21:46:35.337Z,8.23
2022-08-12T21:49:04.763Z,5.90
2022-08-12T21:51:49.051Z,5.78
2022-08-12T21:54:22.592Z,3.17
2022-08-12T21:56:50.280Z,5.82
2022-08-12T21:59:17.887Z,6.78
2022-08-12T22:01:48.949Z,4.20
2022-08-12T22:04:35.376Z,7.47
2022-08-12T22:07:02.223Z,4.60
2022-08-12T22:09:29.854Z,4.15
2022-08-12T22:12:39.095Z,5.60
2022-08-12T22:15:09.278Z,7.78
2022-08-12T22:17:49.832Z,7.45
2022-08-12T22:20:21.798Z,8.85
2022-08-12T22:22:57.043Z,7.60
2022-08-12T22:25:24.239Z,5.78
2022-08-12T22:28:11.960Z,8.35
2022-08-12T22:30:56.952Z,6.25
2022-08-12T22:33:23.375Z,7.05
2022-08-12T22:35:58.764Z,7.80
2022-08-12T22:38:29.186Z,3.60
2022-08-12T22:41:30.020Z,5.65
2022-08-12T22:44:15.565Z,7.22
2022-08-12T22:47:01.104Z,4.32
2022-08-12T22:49:36.852Z,5.80
2022-08-12T22:52:18.489Z,4.57
2022-08-12T22:55:02.990Z,6.38
2022-08-12T22:57:53.992Z,5.43
2022-08-12T23:00:23.966Z,6.40
2022-08-12T23:02:59.382Z,6.00
2022-08-12T23:05:57.503Z,5.20
2022-08-12T23:08:18.122Z,5.38
2022-08-12T23:10:48.278Z,8.25
2022-08-12T23:13:43.999Z,4.63
2022-08-12T23:16:28.501Z,7.45
2022-08-12T23:19:10.939Z,9.05
2022-08-12T23:22:06.760Z,7.45
2022-08-12T23:24:38.656Z,4.20
2022-08-12T23:27:23.868Z,7.38
2022-08-12T23:30:18.675Z,5.70
2022-08-12T23:32:46.503Z,5.03
2022-08-12T23:35:22.619Z,67.20
2022-08-12T23:37:53.932Z,88.07
2022-08-12T23:40:22.112Z,49.45
2022-08-12T23:42:49.123Z,13.45
2022-08-12T23:45:20.569Z,14.43
2022-08-12T23:47:59.771Z,6.82
2022-08-12T23:50:33.960Z,11.38
2022-08-12T23:53:05.768Z,9.35
2022-08-12T23:55:35.798Z,14.70
2022-08-12T23:58:21.445Z,5.18
